sensor_id;sensor_type;location;lat;lon;timestamp;temperature;humidity
8408;DHT22;4241;48.452;9.216;2023-05-02T00:00:46;10.20;99.90
8408;DHT22;4241;48.452;9.216;2023-05-02T00:03:13;10.40;99.90
8408;DHT22;4241;48.452;9.216;2023-05-02T00:05:41;10.60;99.90
8408;DHT22;4241;48.452;9.216;2023-05-02T00:08:08;10.30;99.90
8408;DHT22;4241;48.452;9.216;2023-05-02T00:10:35;10.30;99.90
8408;DHT22;4241;48.452;9.216;2023-05-02T00:13:01;10.40;99.90
8408;DHT22;4241;48.452;9.216;2023-05-02T00:15:30;10.30;99.90
8408;DHT22;4241;48.452;9.216;2023-05-02T00:17:56;10.10;99.90
8408;DHT22;4241;48.452;9.216;2023-05-02T00:20:23;10.40;99.90
8408;DHT22;4241;48.452;9.216;2023-05-02T00:22:50;10.10;99.90
8408;DHT22;4241;48.452;9.216;2023-05-02T00:25:17;10.10;99.90
8408;DHT22;4241;48.452;9.216;2023-05-02T00:27:44;10.40;99.90
8408;DHT22;4241;48.452;9.216;2023-05-02T00:30:11;10.30;99.90
8408;DHT22;4241;48.452;9.216;2023-05-02T00:32:39;10.10;99.90
8408;DHT22;4241;48.452;9.216;2023-05-02T00:35:07;10.30;99.90
8408;DHT22;4241;48.452;9.216;2023-05-02T00:37:34;10.00;99.90
8408;DHT22;4241;48.452;9.216;2023-05-02T00:40:01;10.40;99.90
8408;DHT22;4241;48.452;9.216;2023-05-02T00:42:27;10.20;99.90
8408;DHT22;4241;48.452;9.216;2023-05-02T00:44:56;10.20;99.90
8408;DHT22;4241;48.452;9.216;2023-05-02T00:47:22;10.10;99.90
8408;DHT22;4241;48.452;9.216;2023-05-02T00:49:51;9.80;99.90
8408;DHT22;4241;48.452;9.216;2023-05-02T00:52:18;11.40;99.90
8408;DHT22;4241;48.452;9.216;2023-05-02T00:54:46;9.80;99.90
8408;DHT22;4241;48.452;9.216;2023-05-02T00:57:13;9.90;99.90
8408;DHT22;4241;48.452;9.216;2023-05-02T00:59:40;10.00;99.90
8408;DHT22;4241;48.452;9.216;2023-05-02T01:02:17;10.50;99.90
8408;DHT22;4241;48.452;9.216;2023-05-02T01:04:57;9.90;99.90
8408;DHT22;4241;48.452;9.216;2023-05-02T01:07:39;10.10;99.90
8408;DHT22;4241;48.452;9.216;2023-05-02T01:10:16;10.10;99.90
8408;DHT22;4241;48.452;9.216;2023-05-02T01:12:51;9.60;99.90
8408;DHT22;4241;48.452;9.216;2023-05-02T01:15:21;10.10;99.90
8408;DHT22;4241;48.452;9.216;2023-05-02T01:17:50;9.90;99.90
8408;DHT22;4241;48.452;9.216;2023-05-02T01:20:22;9.90;99.90
8408;DHT22;4241;48.452;9.216;2023-05-02T01:22:51;10.00;99.90
8408;DHT22;4241;48.452;9.216;2023-05-02T01:25:25;10.10;99.90
8408;DHT22;4241;48.452;9.216;2023-05-02T01:28:00;9.70;99.90
8408;DHT22;4241;48.452;9.216;2023-05-02T01:30:33;9.70;99.90
8408;DHT22;4241;48.452;9.216;2023-05-02T01:33:03;9.80;99.90
8408;DHT22;4241;48.452;9.216;2023-05-02T01:35:32;9.70;99.90
8408;DHT22;4241;48.452;9.216;2023-05-02T01:37:59;9.70;99.90
8408;DHT22;4241;48.452;9.216;2023-05-02T01:40:28;9.70;99.90
8408;DHT22;4241;48.452;9.216;2023-05-02T01:42:56;10.00;99.90
8408;DHT22;4241;48.452;9.216;2023-05-02T01:45:24;9.80;99.90
8408;DHT22;4241;48.452;9.216;2023-05-02T01:47:53;10.10;99.90
8408;DHT22;4241;48.452;9.216;2023-05-02T01:50:23;9.80;99.90
8408;DHT22;4241;48.452;9.216;2023-05-02T01:52:52;9.90;99.90
8408;DHT22;4241;48.452;9.216;2023-05-02T01:55:21;9.80;99.90
8408;DHT22;4241;48.452;9.216;2023-05-02T01:57:50;9.90;99.90
8408;DHT22;4241;48.452;9.216;2023-05-02T02:00:19;9.80;99.90
8408;DHT22;4241;48.452;9.216;2023-05-02T02:02:48;9.90;99.90
8408;DHT22;4241;48.452;9.216;2023-05-02T02:05:19;9.90;99.90
8408;DHT22;4241;48.452;9.216;2023-05-02T02:07:47;9.90;99.90
8408;DHT22;4241;48.452;9.216;2023-05-02T02:12:47;9.80;99.90
8408;DHT22;4241;48.452;9.216;2023-05-02T02:15:20;9.70;99.90
8408;DHT22;4241;48.452;9.216;2023-05-02T02:17:56;10.20;99.90
8408;DHT22;4241;48.452;9.216;2023-05-02T02:20:26;10.20;99.90
8408;DHT22;4241;48.452;9.216;2023-05-02T02:22:55;9.60;99.90
8408;DHT22;4241;48.452;9.216;2023-05-02T02:25:23;9.90;99.90
8408;DHT22;4241;48.452;9.216;2023-05-02T02:27:51;9.70;99.90
8408;DHT22;4241;48.452;9.216;2023-05-02T02:30:18;9.70;99.90
8408;DHT22;4241;48.452;9.216;2023-05-02T02:32:45;9.60;99.90
8408;DHT22;4241;48.452;9.216;2023-05-02T02:37:46;9.80;99.90
8408;DHT22;4241;48.452;9.216;2023-05-02T02:40:19;10.00;99.90
8408;DHT22;4241;48.452;9.216;2023-05-02T02:42:58;9.90;99.90
8408;DHT22;4241;48.452;9.216;2023-05-02T02:45:33;10.00;99.90
8408;DHT22;4241;48.452;9.216;2023-05-02T02:48:10;9.80;99.90
8408;DHT22;4241;48.452;9.216;2023-05-02T02:50:46;9.70;99.90
8408;DHT22;4241;48.452;9.216;2023-05-02T02:53:23;9.40;99.90
8408;DHT22;4241;48.452;9.216;2023-05-02T02:55:56;9.60;99.90
8408;DHT22;4241;48.452;9.216;2023-05-02T02:58:30;9.30;99.90
8408;DHT22;4241;48.452;9.216;2023-05-02T03:01:03;9.70;99.90
8408;DHT22;4241;48.452;9.216;2023-05-02T03:03:32;9.30;99.90
8408;DHT22;4241;48.452;9.216;2023-05-02T03:05:59;9.80;99.90
8408;DHT22;4241;48.452;9.216;2023-05-02T03:08:37;9.50;99.90
8408;DHT22;4241;48.452;9.216;2023-05-02T03:11:05;10.10;99.90
8408;DHT22;4241;48.452;9.216;2023-05-02T03:13:32;9.50;99.90
8408;DHT22;4241;48.452;9.216;2023-05-02T03:16:33;9.70;99.90
8408;DHT22;4241;48.452;9.216;2023-05-02T03:19:01;9.10;99.90
8408;DHT22;4241;48.452;9.216;2023-05-02T03:21:28;9.10;99.90
8408;DHT22;4241;48.452;9.216;2023-05-02T03:23:57;9.60;99.90
8408;DHT22;4241;48.452;9.216;2023-05-02T03:26:24;9.60;99.90
8408;DHT22;4241;48.452;9.216;2023-05-02T03:28:51;9.30;99.90
8408;DHT22;4241;48.452;9.216;2023-05-02T03:31:18;9.40;99.90
8408;DHT22;4241;48.452;9.216;2023-05-02T03:33:45;8.90;99.90
8408;DHT22;4241;48.452;9.216;2023-05-02T03:36:11;8.90;99.90
8408;DHT22;4241;48.452;9.216;2023-05-02T03:38:38;9.40;99.90
8408;DHT22;4241;48.452;9.216;2023-05-02T03:41:07;9.40;99.90
8408;DHT22;4241;48.452;9.216;2023-05-02T03:46:05;8.80;99.90
8408;DHT22;4241;48.452;9.216;2023-05-02T03:48:33;9.10;99.90
8408;DHT22;4241;48.452;9.216;2023-05-02T03:51:01;8.80;99.90
8408;DHT22;4241;48.452;9.216;2023-05-02T03:53:28;8.40;99.90
8408;DHT22;4241;48.452;9.216;2023-05-02T03:55:56;9.20;99.90
8408;DHT22;4241;48.452;9.216;2023-05-02T03:58:24;8.90;99.90
8408;DHT22;4241;48.452;9.216;2023-05-02T04:00:51;8.80;99.90
8408;DHT22;4241;48.452;9.216;2023-05-02T04:03:18;8.80;99.90
8408;DHT22;4241;48.452;9.216;2023-05-02T04:05:45;8.60;99.90
8408;DHT22;4241;48.452;9.216;2023-05-02T04:08:12;8.60;99.90
8408;DHT22;4241;48.452;9.216;2023-05-02T04:10:39;8.50;99.90
8408;DHT22;4241;48.452;9.216;2023-05-02T04:13:06;8.50;99.90
8408;DHT22;4241;48.452;9.216;2023-05-02T04:15:34;8.80;99.90
8408;DHT22;4241;48.452;9.216;2023-05-02T04:18:01;9.20;99.90
8408;DHT22;4241;48.452;9.216;2023-05-02T04:20:28;8.60;99.90
8408;DHT22;4241;48.452;9.216;2023-05-02T04:22:55;9.20;99.90
8408;DHT22;4241;48.452;9.216;2023-05-02T04:25:22;8.70;99.90
8408;DHT22;4241;48.452;9.216;2023-05-02T04:27:49;8.70;99.90
8408;DHT22;4241;48.452;9.216;2023-05-02T04:30:15;9.30;99.90
8408;DHT22;4241;48.452;9.216;2023-05-02T04:32:44;8.80;99.90
8408;DHT22;4241;48.452;9.216;2023-05-02T04:35:10;8.80;99.90
8408;DHT22;4241;48.452;9.216;2023-05-02T04:37:37;9.50;99.90
8408;DHT22;4241;48.452;9.216;2023-05-02T04:40:05;9.30;99.90
8408;DHT22;4241;48.452;9.216;2023-05-02T04:42:32;9.00;99.90
8408;DHT22;4241;48.452;9.216;2023-05-02T04:44:59;9.30;99.90
8408;DHT22;4241;48.452;9.216;2023-05-02T04:47:26;9.50;99.90
8408;DHT22;4241;48.452;9.216;2023-05-02T04:49:54;9.10;99.90
8408;DHT22;4241;48.452;9.216;2023-05-02T04:52:20;9.30;99.90
8408;DHT22;4241;48.452;9.216;2023-05-02T04:54:47;9.20;99.90
8408;DHT22;4241;48.452;9.216;2023-05-02T04:57:14;9.70;99.90
8408;DHT22;4241;48.452;9.216;2023-05-02T04:59:41;9.30;99.90
8408;DHT22;4241;48.452;9.216;2023-05-02T05:02:08;9.20;99.90
8408;DHT22;4241;48.452;9.216;2023-05-02T05:04:36;9.50;99.90
8408;DHT22;4241;48.452;9.216;2023-05-02T05:07:05;9.70;99.90
8408;DHT22;4241;48.452;9.216;2023-05-02T05:09:31;9.20;99.90
8408;DHT22;4241;48.452;9.216;2023-05-02T05:11:58;9.80;99.90
8408;DHT22;4241;48.452;9.216;2023-05-02T05:14:26;9.40;99.90
8408;DHT22;4241;48.452;9.216;2023-05-02T05:16:53;9.40;99.90
8408;DHT22;4241;48.452;9.216;2023-05-02T05:19:19;9.90;99.90
8408;DHT22;4241;48.452;9.216;2023-05-02T05:21:46;9.40;99.90
8408;DHT22;4241;48.452;9.216;2023-05-02T05:24:14;9.90;99.90
8408;DHT22;4241;48.452;9.216;2023-05-02T05:26:41;10.10;99.90
8408;DHT22;4241;48.452;9.216;2023-05-02T05:29:08;9.90;99.90
8408;DHT22;4241;48.452;9.216;2023-05-02T05:31:35;9.70;99.90
8408;DHT22;4241;48.452;9.216;2023-05-02T05:34:02;10.20;99.90
8408;DHT22;4241;48.452;9.216;2023-05-02T05:36:29;10.20;99.90
8408;DHT22;4241;48.452;9.216;2023-05-02T05:38:59;9.80;99.90
8408;DHT22;4241;48.452;9.216;2023-05-02T05:41:27;9.80;99.90
8408;DHT22;4241;48.452;9.216;2023-05-02T05:43:55;10.40;99.90
8408;DHT22;4241;48.452;9.216;2023-05-02T05:46:21;10.00;99.90
8408;DHT22;4241;48.452;9.216;2023-05-02T05:48:48;10.00;99.90
8408;DHT22;4241;48.452;9.216;2023-05-02T05:51:15;10.50;99.90
8408;DHT22;4241;48.452;9.216;2023-05-02T05:53:42;10.10;99.90
8408;DHT22;4241;48.452;9.216;2023-05-02T05:56:08;10.70;99.90
8408;DHT22;4241;48.452;9.216;2023-05-02T05:58:37;10.20;99.90
8408;DHT22;4241;48.452;9.216;2023-05-02T06:01:04;10.30;99.90
8408;DHT22;4241;48.452;9.216;2023-05-02T06:03:31;10.30;99.90
8408;DHT22;4241;48.452;9.216;2023-05-02T06:05:58;10.80;99.90
8408;DHT22;4241;48.452;9.216;2023-05-02T06:08:25;10.90;99.90
8408;DHT22;4241;48.452;9.216;2023-05-02T06:10:52;10.80;99.90
8408;DHT22;4241;48.452;9.216;2023-05-02T06:13:19;10.50;99.90
8408;DHT22;4241;48.452;9.216;2023-05-02T06:15:47;10.50;99.90
8408;DHT22;4241;48.452;9.216;2023-05-02T06:18:14;10.50;99.90
8408;DHT22;4241;48.452;9.216;2023-05-02T06:23:07;10.70;99.90
8408;DHT22;4241;48.452;9.216;2023-05-02T06:25:37;11.20;99.90
8408;DHT22;4241;48.452;9.216;2023-05-02T06:28:04;10.80;99.90
8408;DHT22;4241;48.452;9.216;2023-05-02T06:30:31;11.50;99.90
8408;DHT22;4241;48.452;9.216;2023-05-02T06:32:59;11.00;99.90
8408;DHT22;4241;48.452;9.216;2023-05-02T06:35:26;11.60;99.90
8408;DHT22;4241;48.452;9.216;2023-05-02T06:37:53;11.60;99.90
8408;DHT22;4241;48.452;9.216;2023-05-02T06:40:20;11.30;99.90
8408;DHT22;4241;48.452;9.216;2023-05-02T06:45:13;11.40;99.90
8408;DHT22;4241;48.452;9.216;2023-05-02T06:47:40;11.50;99.90
8408;DHT22;4241;48.452;9.216;2023-05-02T06:52:37;11.60;99.90
8408;DHT22;4241;48.452;9.216;2023-05-02T06:55:04;11.50;99.90
8408;DHT22;4241;48.452;9.216;2023-05-02T06:57:31;11.80;99.90
8408;DHT22;4241;48.452;9.216;2023-05-02T06:59:58;11.10;99.90
8408;DHT22;4241;48.452;9.216;2023-05-02T07:02:24;11.30;99.90
8408;DHT22;4241;48.452;9.216;2023-05-02T07:04:51;11.80;99.90
8408;DHT22;4241;48.452;9.216;2023-05-02T07:07:19;11.90;99.90
8408;DHT22;4241;48.452;9.216;2023-05-02T07:09:46;11.30;99.90
8408;DHT22;4241;48.452;9.216;2023-05-02T07:12:13;11.20;99.90
8408;DHT22;4241;48.452;9.216;2023-05-02T07:14:40;11.70;99.90
8408;DHT22;4241;48.452;9.216;2023-05-02T07:17:07;11.40;99.90
8408;DHT22;4241;48.452;9.216;2023-05-02T07:19:34;11.20;99.90
8408;DHT22;4241;48.452;9.216;2023-05-02T07:22:01;11.50;99.90
8408;DHT22;4241;48.452;9.216;2023-05-02T07:24:29;11.10;99.90
8408;DHT22;4241;48.452;9.216;2023-05-02T07:26:56;11.20;99.90
8408;DHT22;4241;48.452;9.216;2023-05-02T07:29:23;11.80;99.90
8408;DHT22;4241;48.452;9.216;2023-05-02T07:31:49;11.20;99.90
8408;DHT22;4241;48.452;9.216;2023-05-02T07:34:17;11.30;99.90
8408;DHT22;4241;48.452;9.216;2023-05-02T07:36:43;11.80;99.90
8408;DHT22;4241;48.452;9.216;2023-05-02T07:39:10;11.30;99.90
8408;DHT22;4241;48.452;9.216;2023-05-02T07:41:38;11.70;99.90
8408;DHT22;4241;48.452;9.216;2023-05-02T07:44:05;11.90;99.90
8408;DHT22;4241;48.452;9.216;2023-05-02T07:48:59;11.30;99.90
8408;DHT22;4241;48.452;9.216;2023-05-02T07:51:26;11.40;99.90
8408;DHT22;4241;48.452;9.216;2023-05-02T07:53:53;11.30;99.90
8408;DHT22;4241;48.452;9.216;2023-05-02T07:56:23;11.90;99.90
8408;DHT22;4241;48.452;9.216;2023-05-02T07:58:51;11.30;99.90
8408;DHT22;4241;48.452;9.216;2023-05-02T08:01:18;11.80;99.90
8408;DHT22;4241;48.452;9.216;2023-05-02T08:06:14;11.70;99.90
8408;DHT22;4241;48.452;9.216;2023-05-02T08:08:40;11.80;99.90
8408;DHT22;4241;48.452;9.216;2023-05-02T08:11:07;12.10;99.90
8408;DHT22;4241;48.452;9.216;2023-05-02T08:13:34;12.00;99.90
8408;DHT22;4241;48.452;9.216;2023-05-02T08:16:02;12.00;99.90
8408;DHT22;4241;48.452;9.216;2023-05-02T08:18:29;12.00;99.90
8408;DHT22;4241;48.452;9.216;2023-05-02T08:20:56;12.40;99.90
8408;DHT22;4241;48.452;9.216;2023-05-02T08:23:23;12.20;99.90
8408;DHT22;4241;48.452;9.216;2023-05-02T08:25:50;12.20;99.90
8408;DHT22;4241;48.452;9.216;2023-05-02T08:28:17;12.40;99.90
8408;DHT22;4241;48.452;9.216;2023-05-02T08:30:44;12.00;99.90
8408;DHT22;4241;48.452;9.216;2023-05-02T08:33:12;12.20;99.90
8408;DHT22;4241;48.452;9.216;2023-05-02T08:35:39;12.10;99.90
8408;DHT22;4241;48.452;9.216;2023-05-02T08:38:06;12.70;99.90
8408;DHT22;4241;48.452;9.216;2023-05-02T08:40:35;12.50;99.90
8408;DHT22;4241;48.452;9.216;2023-05-02T08:43:03;12.40;99.90
8408;DHT22;4241;48.452;9.216;2023-05-02T08:45:34;12.30;99.90
8408;DHT22;4241;48.452;9.216;2023-05-02T08:48:05;12.00;99.90
8408;DHT22;4241;48.452;9.216;2023-05-02T08:50:36;12.00;99.90
8408;DHT22;4241;48.452;9.216;2023-05-02T08:53:04;12.40;99.90
8408;DHT22;4241;48.452;9.216;2023-05-02T08:55:33;12.00;99.90
8408;DHT22;4241;48.452;9.216;2023-05-02T08:58:01;12.20;99.90
8408;DHT22;4241;48.452;9.216;2023-05-02T09:00:29;12.50;99.90
8408;DHT22;4241;48.452;9.216;2023-05-02T09:03:05;12.30;99.90
8408;DHT22;4241;48.452;9.216;2023-05-02T09:05:39;12.40;99.90
8408;DHT22;4241;48.452;9.216;2023-05-02T09:08:06;12.70;99.90
8408;DHT22;4241;48.452;9.216;2023-05-02T09:13:32;12.60;99.90
8408;DHT22;4241;48.452;9.216;2023-05-02T09:16:01;12.50;99.90
8408;DHT22;4241;48.452;9.216;2023-05-02T09:18:29;12.70;99.90
8408;DHT22;4241;48.452;9.216;2023-05-02T09:20:59;12.70;99.90
8408;DHT22;4241;48.452;9.216;2023-05-02T09:23:34;12.80;99.90
8408;DHT22;4241;48.452;9.216;2023-05-02T09:26:12;13.00;99.90
8408;DHT22;4241;48.452;9.216;2023-05-02T09:28:41;13.00;99.90
8408;DHT22;4241;48.452;9.216;2023-05-02T09:31:08;13.20;99.90
8408;DHT22;4241;48.452;9.216;2023-05-02T09:33:36;13.30;99.90
8408;DHT22;4241;48.452;9.216;2023-05-02T09:36:05;13.70;99.90
8408;DHT22;4241;48.452;9.216;2023-05-02T09:38:33;13.60;99.90
8408;DHT22;4241;48.452;9.216;2023-05-02T09:41:00;13.60;99.90
8408;DHT22;4241;48.452;9.216;2023-05-02T09:43:28;13.70;99.90
8408;DHT22;4241;48.452;9.216;2023-05-02T09:45:59;13.70;99.90
8408;DHT22;4241;48.452;9.216;2023-05-02T09:48:28;13.80;99.90
8408;DHT22;4241;48.452;9.216;2023-05-02T09:50:55;13.90;99.90
8408;DHT22;4241;48.452;9.216;2023-05-02T09:53:25;13.80;99.90
8408;DHT22;4241;48.452;9.216;2023-05-02T09:55:59;13.80;99.90
8408;DHT22;4241;48.452;9.216;2023-05-02T09:58:26;14.00;99.90
8408;DHT22;4241;48.452;9.216;2023-05-02T10:00:55;13.90;99.90
8408;DHT22;4241;48.452;9.216;2023-05-02T10:03:23;14.50;99.90
8408;DHT22;4241;48.452;9.216;2023-05-02T10:08:19;14.80;99.90
8408;DHT22;4241;48.452;9.216;2023-05-02T10:10:50;14.70;99.90
8408;DHT22;4241;48.452;9.216;2023-05-02T10:13:19;14.50;99.90
8408;DHT22;4241;48.452;9.216;2023-05-02T10:15:49;14.70;99.90
8408;DHT22;4241;48.452;9.216;2023-05-02T10:18:26;14.90;99.90
8408;DHT22;4241;48.452;9.216;2023-05-02T10:20:56;15.00;99.90
8408;DHT22;4241;48.452;9.216;2023-05-02T10:23:28;14.90;99.90
8408;DHT22;4241;48.452;9.216;2023-05-02T10:25:58;14.90;99.90
8408;DHT22;4241;48.452;9.216;2023-05-02T10:30:53;15.30;99.90
8408;DHT22;4241;48.452;9.216;2023-05-02T10:33:21;15.80;99.90
8408;DHT22;4241;48.452;9.216;2023-05-02T10:35:48;16.90;99.90
8408;DHT22;4241;48.452;9.216;2023-05-02T10:38:18;17.10;99.90
8408;DHT22;4241;48.452;9.216;2023-05-02T10:40:51;17.50;99.90
8408;DHT22;4241;48.452;9.216;2023-05-02T10:43:23;17.70;99.90
8408;DHT22;4241;48.452;9.216;2023-05-02T10:45:51;18.00;99.90
8408;DHT22;4241;48.452;9.216;2023-05-02T10:48:19;18.20;99.90
8408;DHT22;4241;48.452;9.216;2023-05-02T10:50:48;18.40;99.90
8408;DHT22;4241;48.452;9.216;2023-05-02T10:53:26;18.60;99.90
8408;DHT22;4241;48.452;9.216;2023-05-02T10:56:11;18.80;99.90
8408;DHT22;4241;48.452;9.216;2023-05-02T10:58:40;19.20;99.90
8408;DHT22;4241;48.452;9.216;2023-05-02T11:01:34;19.10;99.90
8408;DHT22;4241;48.452;9.216;2023-05-02T11:04:08;19.20;99.90
8408;DHT22;4241;48.452;9.216;2023-05-02T11:06:36;19.50;99.90
8408;DHT22;4241;48.452;9.216;2023-05-02T11:09:33;19.30;99.90
8408;DHT22;4241;48.452;9.216;2023-05-02T11:12:00;19.20;99.90
8408;DHT22;4241;48.452;9.216;2023-05-02T11:14:45;19.50;99.90
8408;DHT22;4241;48.452;9.216;2023-05-02T11:17:13;19.50;99.90
8408;DHT22;4241;48.452;9.216;2023-05-02T11:22:54;19.20;99.90
8408;DHT22;4241;48.452;9.216;2023-05-02T11:25:29;19.30;99.90
8408;DHT22;4241;48.452;9.216;2023-05-02T11:27:56;19.30;99.90
8408;DHT22;4241;48.452;9.216;2023-05-02T11:30:37;18.80;99.90
8408;DHT22;4241;48.452;9.216;2023-05-02T11:33:14;18.10;99.90
8408;DHT22;4241;48.452;9.216;2023-05-02T11:35:42;18.00;99.90
8408;DHT22;4241;48.452;9.216;2023-05-02T11:38:11;18.20;99.90
8408;DHT22;4241;48.452;9.216;2023-05-02T11:43:13;18.40;99.90
8408;DHT22;4241;48.452;9.216;2023-05-02T11:45:41;18.70;99.90
8408;DHT22;4241;48.452;9.216;2023-05-02T11:48:10;18.90;99.90
8408;DHT22;4241;48.452;9.216;2023-05-02T11:50:44;19.00;99.90
8408;DHT22;4241;48.452;9.216;2023-05-02T11:53:12;19.20;99.90
8408;DHT22;4241;48.452;9.216;2023-05-02T11:55:44;19.20;99.90
8408;DHT22;4241;48.452;9.216;2023-05-02T11:58:12;19.10;99.90
8408;DHT22;4241;48.452;9.216;2023-05-02T12:00:41;19.00;99.90
8408;DHT22;4241;48.452;9.216;2023-05-02T12:03:19;19.10;99.90
8408;DHT22;4241;48.452;9.216;2023-05-02T12:08:18;19.30;99.90
8408;DHT22;4241;48.452;9.216;2023-05-02T12:15:41;19.10;99.90
8408;DHT22;4241;48.452;9.216;2023-05-02T12:20:35;19.00;99.90
8408;DHT22;4241;48.452;9.216;2023-05-02T12:23:04;18.50;99.90
8408;DHT22;4241;48.452;9.216;2023-05-02T12:25:36;18.60;99.90
8408;DHT22;4241;48.452;9.216;2023-05-02T12:28:04;18.50;99.90
8408;DHT22;4241;48.452;9.216;2023-05-02T12:30:31;18.30;99.90
8408;DHT22;4241;48.452;9.216;2023-05-02T12:33:01;18.10;99.90
8408;DHT22;4241;48.452;9.216;2023-05-02T12:35:28;18.20;99.90
8408;DHT22;4241;48.452;9.216;2023-05-02T12:38:11;18.20;99.90
8408;DHT22;4241;48.452;9.216;2023-05-02T12:40:38;18.30;99.90
8408;DHT22;4241;48.452;9.216;2023-05-02T12:43:14;18.50;99.90
8408;DHT22;4241;48.452;9.216;2023-05-02T12:45:43;18.70;99.90
8408;DHT22;4241;48.452;9.216;2023-05-02T12:48:21;18.50;99.90
8408;DHT22;4241;48.452;9.216;2023-05-02T12:50:49;19.10;99.90
8408;DHT22;4241;48.452;9.216;2023-05-02T12:53:16;19.30;99.90
8408;DHT22;4241;48.452;9.216;2023-05-02T12:55:43;19.00;99.90
8408;DHT22;4241;48.452;9.216;2023-05-02T13:00:40;19.70;99.90
8408;DHT22;4241;48.452;9.216;2023-05-02T13:03:08;19.60;99.90
8408;DHT22;4241;48.452;9.216;2023-05-02T13:05:36;19.90;99.90
8408;DHT22;4241;48.452;9.216;2023-05-02T13:08:04;19.80;99.90
8408;DHT22;4241;48.452;9.216;2023-05-02T13:10:30;19.80;99.90
8408;DHT22;4241;48.452;9.216;2023-05-02T13:15:26;19.60;98.40
8408;DHT22;4241;48.452;9.216;2023-05-02T13:17:53;19.50;99.90
8408;DHT22;4241;48.452;9.216;2023-05-02T13:20:20;19.40;99.90
8408;DHT22;4241;48.452;9.216;2023-05-02T13:22:48;19.30;99.20
8408;DHT22;4241;48.452;9.216;2023-05-02T13:30:11;20.10;99.90
8408;DHT22;4241;48.452;9.216;2023-05-02T13:32:38;20.00;98.50
8408;DHT22;4241;48.452;9.216;2023-05-02T13:35:06;20.10;99.90
8408;DHT22;4241;48.452;9.216;2023-05-02T13:37:33;20.10;99.90
8408;DHT22;4241;48.452;9.216;2023-05-02T13:40:01;20.10;99.90
8408;DHT22;4241;48.452;9.216;2023-05-02T13:42:29;19.90;96.10
8408;DHT22;4241;48.452;9.216;2023-05-02T13:44:56;19.80;98.00
8408;DHT22;4241;48.452;9.216;2023-05-02T13:49:50;19.20;98.00
8408;DHT22;4241;48.452;9.216;2023-05-02T13:52:17;18.80;97.90
8408;DHT22;4241;48.452;9.216;2023-05-02T13:57:12;18.40;99.90
8408;DHT22;4241;48.452;9.216;2023-05-02T14:09:28;17.80;99.90
8408;DHT22;4241;48.452;9.216;2023-05-02T14:11:54;17.60;99.90
8408;DHT22;4241;48.452;9.216;2023-05-02T14:14:24;17.60;99.90
8408;DHT22;4241;48.452;9.216;2023-05-02T14:24:13;17.60;99.90
8408;DHT22;4241;48.452;9.216;2023-05-02T14:31:36;17.90;99.90
8408;DHT22;4241;48.452;9.216;2023-05-02T14:34:03;17.80;99.90
8408;DHT22;4241;48.452;9.216;2023-05-02T14:36:30;18.00;99.90
8408;DHT22;4241;48.452;9.216;2023-05-02T14:38:57;17.90;99.90
8408;DHT22;4241;48.452;9.216;2023-05-02T14:41:24;18.00;99.90
8408;DHT22;4241;48.452;9.216;2023-05-02T14:43:51;18.10;99.90
8408;DHT22;4241;48.452;9.216;2023-05-02T14:46:18;17.90;99.90
8408;DHT22;4241;48.452;9.216;2023-05-02T14:48:46;17.80;99.90
8408;DHT22;4241;48.452;9.216;2023-05-02T14:51:13;17.70;99.90
8408;DHT22;4241;48.452;9.216;2023-05-02T14:53:40;17.60;99.90
8408;DHT22;4241;48.452;9.216;2023-05-02T14:56:11;17.70;99.90
8408;DHT22;4241;48.452;9.216;2023-05-02T14:58:38;17.80;99.90
8408;DHT22;4241;48.452;9.216;2023-05-02T15:01:05;17.50;99.90
8408;DHT22;4241;48.452;9.216;2023-05-02T15:03:31;17.60;99.90
8408;DHT22;4241;48.452;9.216;2023-05-02T15:05:59;17.60;99.90
8408;DHT22;4241;48.452;9.216;2023-05-02T15:10:53;17.70;99.90
8408;DHT22;4241;48.452;9.216;2023-05-02T15:13:21;17.80;99.90
8408;DHT22;4241;48.452;9.216;2023-05-02T15:20:42;17.90;99.90
8408;DHT22;4241;48.452;9.216;2023-05-02T15:23:10;17.90;99.90
8408;DHT22;4241;48.452;9.216;2023-05-02T15:30:32;18.20;99.90
8408;DHT22;4241;48.452;9.216;2023-05-02T15:33:00;18.00;99.90
8408;DHT22;4241;48.452;9.216;2023-05-02T15:35:27;17.90;99.90
8408;DHT22;4241;48.452;9.216;2023-05-02T15:37:54;17.80;99.90
8408;DHT22;4241;48.452;9.216;2023-05-02T15:40:22;17.70;99.80
8408;DHT22;4241;48.452;9.216;2023-05-02T15:45:17;17.60;99.90
8408;DHT22;4241;48.452;9.216;2023-05-02T15:47:44;17.50;99.90
8408;DHT22;4241;48.452;9.216;2023-05-02T15:50:11;17.30;99.90
8408;DHT22;4241;48.452;9.216;2023-05-02T15:52:38;17.40;99.90
8408;DHT22;4241;48.452;9.216;2023-05-02T15:55:05;17.80;99.90
8408;DHT22;4241;48.452;9.216;2023-05-02T15:57:33;18.20;99.90
8408;DHT22;4241;48.452;9.216;2023-05-02T16:02:27;18.70;99.90
8408;DHT22;4241;48.452;9.216;2023-05-02T16:09:48;19.80;99.30
8408;DHT22;4241;48.452;9.216;2023-05-02T16:12:15;20.00;97.40
8408;DHT22;4241;48.452;9.216;2023-05-02T16:14:43;20.10;97.30
8408;DHT22;4241;48.452;9.216;2023-05-02T16:17:10;20.30;96.80
8408;DHT22;4241;48.452;9.216;2023-05-02T16:19:37;20.50;94.10
8408;DHT22;4241;48.452;9.216;2023-05-02T16:24:31;20.50;92.50
8408;DHT22;4241;48.452;9.216;2023-05-02T16:31:54;20.90;90.40
8408;DHT22;4241;48.452;9.216;2023-05-02T16:36:48;20.80;92.40
8408;DHT22;4241;48.452;9.216;2023-05-02T16:41:43;20.00;90.50
8408;DHT22;4241;48.452;9.216;2023-05-02T16:44:10;19.70;92.90
8408;DHT22;4241;48.452;9.216;2023-05-02T16:49:07;19.20;94.90
8408;DHT22;4241;48.452;9.216;2023-05-02T16:51:33;18.70;96.80
8408;DHT22;4241;48.452;9.216;2023-05-02T16:54:00;18.50;95.50
8408;DHT22;4241;48.452;9.216;2023-05-02T16:58:55;18.70;95.30
8408;DHT22;4241;48.452;9.216;2023-05-02T17:01:21;18.90;95.90
8408;DHT22;4241;48.452;9.216;2023-05-02T17:03:48;19.30;93.80
8408;DHT22;4241;48.452;9.216;2023-05-02T17:06:17;19.40;96.30
8408;DHT22;4241;48.452;9.216;2023-05-02T17:08:43;19.90;95.50
8408;DHT22;4241;48.452;9.216;2023-05-02T17:11:10;20.40;93.00
8408;DHT22;4241;48.452;9.216;2023-05-02T17:13:40;20.80;90.70
8408;DHT22;4241;48.452;9.216;2023-05-02T17:16:08;20.90;90.40
8408;DHT22;4241;48.452;9.216;2023-05-02T17:18:35;21.20;85.50
8408;DHT22;4241;48.452;9.216;2023-05-02T17:21:03;21.50;86.50
8408;DHT22;4241;48.452;9.216;2023-05-02T17:23:31;21.40;80.20
8408;DHT22;4241;48.452;9.216;2023-05-02T17:30:52;21.50;80.50
8408;DHT22;4241;48.452;9.216;2023-05-02T17:33:20;21.50;82.40
8408;DHT22;4241;48.452;9.216;2023-05-02T17:35:47;21.10;70.00
8408;DHT22;4241;48.452;9.216;2023-05-02T17:40:42;21.40;73.70
8408;DHT22;4241;48.452;9.216;2023-05-02T17:48:06;21.20;74.80
8408;DHT22;4241;48.452;9.216;2023-05-02T17:50:35;20.90;79.20
8408;DHT22;4241;48.452;9.216;2023-05-02T17:53:03;20.90;79.50
8408;DHT22;4241;48.452;9.216;2023-05-02T17:57:58;20.20;81.70
8408;DHT22;4241;48.452;9.216;2023-05-02T18:05:21;19.50;88.50
8408;DHT22;4241;48.452;9.216;2023-05-02T18:07:50;19.10;89.60
8408;DHT22;4241;48.452;9.216;2023-05-02T18:10:17;18.80;87.00
8408;DHT22;4241;48.452;9.216;2023-05-02T18:12:44;18.50;90.50
8408;DHT22;4241;48.452;9.216;2023-05-02T18:15:12;18.00;91.30
8408;DHT22;4241;48.452;9.216;2023-05-02T18:20:07;17.50;88.80
8408;DHT22;4241;48.452;9.216;2023-05-02T18:22:34;17.20;97.60
8408;DHT22;4241;48.452;9.216;2023-05-02T18:25:02;17.00;97.60
8408;DHT22;4241;48.452;9.216;2023-05-02T18:27:28;16.90;99.90
8408;DHT22;4241;48.452;9.216;2023-05-02T18:29:55;16.90;95.20
8408;DHT22;4241;48.452;9.216;2023-05-02T18:32:24;16.70;99.90
8408;DHT22;4241;48.452;9.216;2023-05-02T18:34:51;16.60;99.90